createdAt,value
2019-05-18T00:02:12.417Z,13.10
2019-05-18T00:04:40.130Z,13.00
2019-05-18T00:07:07.823Z,13.00
2019-05-18T00:09:35.484Z,12.90
2019-05-18T00:12:03.423Z,12.80
2019-05-18T00:14:31.118Z,12.70
2019-05-18T00:16:58.874Z,12.70
2019-05-18T00:19:26.898Z,12.70
2019-05-18T00:21:54.750Z,12.60
2019-05-18T00:24:22.646Z,12.60
2019-05-18T00:26:50.448Z,12.60
2019-05-18T00:29:18.500Z,12.60
2019-05-18T00:31:46.358Z,12.60
2019-05-18T00:34:14.067Z,12.50
2019-05-18T00:36:41.715Z,12.50
2019-05-18T00:39:09.813Z,12.50
2019-05-18T00:41:37.695Z,12.50
2019-05-18T00:44:05.377Z,12.50
2019-05-18T00:46:33.134Z,12.40
2019-05-18T00:49:01.114Z,12.40
2019-05-18T00:51:28.752Z,12.30
2019-05-18T00:53:56.379Z,12.30
2019-05-18T00:56:24.502Z,12.40
2019-05-18T00:58:52.338Z,12.40
2019-05-18T01:01:20.306Z,12.40
2019-05-18T01:03:48.086Z,12.50
2019-05-18T01:06:15.794Z,12.60
2019-05-18T01:08:43.551Z,12.60
2019-05-18T01:11:11.381Z,12.60
2019-05-18T01:13:39.148Z,12.60
2019-05-18T01:16:06.855Z,12.60
2019-05-18T01:18:35.231Z,12.70
2019-05-18T01:21:03.094Z,12.70
2019-05-18T01:23:30.836Z,12.70
2019-05-18T01:25:58.777Z,12.70
2019-05-18T01:28:26.643Z,12.70
2019-05-18T01:30:54.354Z,12.70
2019-05-18T01:33:23.209Z,12.60
2019-05-18T01:35:50.946Z,12.60
2019-05-18T01:38:20.086Z,12.60
2019-05-18T01:40:47.964Z,12.60
2019-05-18T01:43:15.679Z,12.60
2019-05-18T01:45:43.808Z,12.50
2019-05-18T01:48:14.449Z,12.50
2019-05-18T01:50:41.183Z,12.50
2019-05-18T01:53:09.017Z,12.50
2019-05-18T01:55:36.665Z,12.40
2019-05-18T01:58:04.435Z,12.40
2019-05-18T02:00:32.058Z,12.40
2019-05-18T02:02:59.709Z,12.50
2019-05-18T02:05:27.418Z,12.50
2019-05-18T02:07:55.109Z,12.40
2019-05-18T02:10:22.814Z,12.40
2019-05-18T02:12:50.804Z,12.40
2019-05-18T02:15:18.615Z,12.40
2019-05-18T02:17:46.397Z,12.40
2019-05-18T02:20:14.849Z,12.40
2019-05-18T02:22:42.597Z,12.40
2019-05-18T02:25:10.656Z,12.30
2019-05-18T02:27:38.463Z,12.20
2019-05-18T02:30:07.094Z,12.10
2019-05-18T02:32:34.791Z,12.10
2019-05-18T02:35:02.634Z,12.20
2019-05-18T02:37:30.260Z,12.10
2019-05-18T02:39:57.947Z,12.10
2019-05-18T02:42:25.747Z,12.10
2019-05-18T02:44:53.444Z,12.10
2019-05-18T02:47:21.190Z,12.10
2019-05-18T02:49:49.014Z,12.10
2019-05-18T02:52:16.763Z,12.00
2019-05-18T02:54:44.402Z,12.00
2019-05-18T02:57:12.160Z,12.00
2019-05-18T02:59:39.819Z,12.00
2019-05-18T03:02:07.655Z,12.00
2019-05-18T03:04:35.419Z,12.00
2019-05-18T03:07:03.140Z,11.90
2019-05-18T03:09:31.852Z,11.90
2019-05-18T03:11:59.644Z,11.80
2019-05-18T03:14:27.406Z,11.80
2019-05-18T03:16:55.245Z,11.80
2019-05-18T03:19:23.097Z,11.70
2019-05-18T03:21:50.829Z,11.70
2019-05-18T03:24:18.749Z,11.70
2019-05-18T03:26:46.414Z,11.70
2019-05-18T03:29:14.477Z,11.80
2019-05-18T03:31:42.172Z,11.80
2019-05-18T03:34:09.893Z,11.70
2019-05-18T03:36:37.684Z,11.70
2019-05-18T03:39:05.617Z,11.70
2019-05-18T03:41:33.384Z,11.70
2019-05-18T03:44:01.366Z,11.80
2019-05-18T03:46:28.980Z,11.70
2019-05-18T03:48:56.680Z,11.70
2019-05-18T03:51:26.904Z,11.80
2019-05-18T03:53:57.116Z,11.80
2019-05-18T03:56:24.880Z,11.70
2019-05-18T03:58:52.695Z,11.70
2019-05-18T04:01:20.335Z,11.70
2019-05-18T04:03:48.212Z,11.70
2019-05-18T04:06:17.095Z,11.60
2019-05-18T04:08:44.858Z,11.50
2019-05-18T04:11:12.654Z,11.60
2019-05-18T04:13:40.590Z,11.60
2019-05-18T04:16:08.257Z,11.60
2019-05-18T04:18:35.935Z,11.70
2019-05-18T04:21:06.988Z,11.70
2019-05-18T04:23:34.697Z,11.80
2019-05-18T04:26:02.838Z,11.80
2019-05-18T04:28:30.689Z,11.80
2019-05-18T04:30:58.427Z,11.90
2019-05-18T04:33:26.135Z,12.00
2019-05-18T04:35:53.838Z,12.10
2019-05-18T04:38:21.558Z,12.20
2019-05-18T04:40:49.245Z,12.30
2019-05-18T04:43:16.936Z,12.40
2019-05-18T04:45:44.902Z,12.40
2019-05-18T04:48:13.140Z,12.40
2019-05-18T04:50:40.870Z,12.40
2019-05-18T04:53:08.740Z,12.40
2019-05-18T04:55:36.432Z,12.40
2019-05-18T04:58:04.269Z,12.40
2019-05-18T05:00:32.997Z,12.40
2019-05-18T05:03:00.701Z,12.40
2019-05-18T05:05:28.366Z,12.40
2019-05-18T05:07:56.609Z,12.50
2019-05-18T05:10:24.454Z,12.50
2019-05-18T05:12:53.321Z,12.50
2019-05-18T05:15:22.168Z,12.60
2019-05-18T05:17:49.842Z,12.60
2019-05-18T05:20:20.040Z,12.70
2019-05-18T05:22:47.225Z,12.70
2019-05-18T05:25:14.879Z,12.70
2019-05-18T05:27:42.570Z,12.70
2019-05-18T05:30:11.024Z,12.80
2019-05-18T05:32:38.960Z,12.70
2019-05-18T05:35:08.022Z,12.80
2019-05-18T05:37:36.226Z,12.80
2019-05-18T05:40:10.147Z,12.90
2019-05-18T05:42:38.544Z,12.80
2019-05-18T05:45:17.465Z,12.90
2019-05-18T05:47:45.183Z,12.90
2019-05-18T05:50:13.006Z,12.90
2019-05-18T05:52:40.900Z,12.90
2019-05-18T05:55:09.153Z,12.90
2019-05-18T05:57:36.904Z,13.00
2019-05-18T06:00:05.167Z,13.00
2019-05-18T06:02:32.796Z,13.10
2019-05-18T06:05:02.077Z,13.20
2019-05-18T06:07:30.060Z,13.30
2019-05-18T06:09:57.876Z,13.30
2019-05-18T06:12:25.664Z,13.40
2019-05-18T06:14:56.051Z,13.40
2019-05-18T06:17:23.881Z,13.40
2019-05-18T06:19:52.006Z,13.50
2019-05-18T06:22:19.849Z,13.60
2019-05-18T06:24:50.581Z,13.70
2019-05-18T06:27:18.360Z,13.80
2019-05-18T06:29:47.052Z,14.00
2019-05-18T06:32:14.726Z,14.10
2019-05-18T06:34:42.438Z,14.20
2019-05-18T06:37:11.787Z,14.30
2019-05-18T06:39:39.923Z,14.30
2019-05-18T06:42:10.765Z,14.30
2019-05-18T06:44:37.905Z,14.40
2019-05-18T06:47:06.894Z,14.40
2019-05-18T06:49:34.814Z,14.30
2019-05-18T06:52:02.736Z,14.30
2019-05-18T06:54:30.567Z,14.20
2019-05-18T06:56:59.623Z,14.30
2019-05-18T06:59:27.958Z,14.50
2019-05-18T07:01:56.179Z,14.60
2019-05-18T07:04:24.717Z,14.70
2019-05-18T07:06:52.853Z,14.70
2019-05-18T07:09:20.740Z,14.70
2019-05-18T07:11:48.544Z,14.90
2019-05-18T07:14:25.390Z,15.10
2019-05-18T07:16:46.629Z,15.20
2019-05-18T07:19:14.337Z,15.30
2019-05-18T07:21:42.010Z,15.50
2019-05-18T07:24:09.770Z,15.70
2019-05-18T07:26:37.475Z,15.80
2019-05-18T07:29:05.854Z,15.80
2019-05-18T07:31:33.904Z,15.90
2019-05-18T07:34:01.662Z,16.00
2019-05-18T07:36:29.414Z,16.20
2019-05-18T07:38:57.263Z,16.40
2019-05-18T07:41:25.160Z,16.50
2019-05-18T07:43:53.078Z,16.50
2019-05-18T07:46:20.888Z,16.50
2019-05-18T07:48:48.572Z,16.60
2019-05-18T07:51:16.400Z,16.80
2019-05-18T07:53:44.047Z,16.80
2019-05-18T07:56:12.056Z,16.80
2019-05-18T07:58:39.907Z,17.00
2019-05-18T08:01:07.801Z,17.10
2019-05-18T08:03:35.584Z,17.20
2019-05-18T08:06:03.265Z,17.20
2019-05-18T08:08:31.139Z,17.40
2019-05-18T08:10:58.759Z,17.60
2019-05-18T08:13:26.691Z,17.70
2019-05-18T08:15:54.359Z,17.90
2019-05-18T08:18:21.990Z,17.90
2019-05-18T08:20:49.713Z,18.10
2019-05-18T08:23:17.350Z,18.10
2019-05-18T08:25:45.067Z,18.20
2019-05-18T08:28:12.844Z,18.30
2019-05-18T08:30:41.383Z,18.30
2019-05-18T08:33:09.345Z,18.40
2019-05-18T08:35:37.057Z,18.50
2019-05-18T08:38:06.145Z,18.60
2019-05-18T08:40:34.283Z,18.70
2019-05-18T08:43:02.109Z,18.70
2019-05-18T08:45:30.400Z,18.80
2019-05-18T08:47:58.442Z,18.90
2019-05-18T08:50:26.172Z,19.00
2019-05-18T08:52:54.016Z,19.10
2019-05-18T08:55:21.746Z,19.20
2019-05-18T08:57:49.631Z,19.20
2019-05-18T09:00:20.823Z,18.90
2019-05-18T09:02:48.724Z,18.70
2019-05-18T09:05:54.316Z,18.60
2019-05-18T09:08:22.682Z,18.50
2019-05-18T09:10:50.490Z,18.40
2019-05-18T09:13:20.461Z,18.50
2019-05-18T09:15:48.312Z,18.50
2019-05-18T09:18:16.397Z,18.50
2019-05-18T09:20:44.280Z,18.60
2019-05-18T09:23:12.181Z,18.80
2019-05-18T09:25:39.842Z,18.90
2019-05-18T09:28:07.699Z,19.00
2019-05-18T09:30:35.562Z,19.20
2019-05-18T09:33:03.544Z,19.20
2019-05-18T09:35:31.372Z,19.30
2019-05-18T09:37:59.180Z,19.50
2019-05-18T09:40:27.697Z,19.60
2019-05-18T09:42:55.650Z,19.60
2019-05-18T09:45:26.174Z,19.60
2019-05-18T09:47:54.178Z,19.60
2019-05-18T09:50:22.255Z,19.70
2019-05-18T09:52:50.272Z,19.70
2019-05-18T09:55:18.269Z,19.80
2019-05-18T09:57:46.827Z,19.90
2019-05-18T10:00:15.262Z,20.00
2019-05-18T10:02:43.082Z,19.90
2019-05-18T10:05:11.411Z,19.90
2019-05-18T10:07:41.314Z,19.80
2019-05-18T10:10:11.551Z,19.80
2019-05-18T10:12:39.631Z,19.90
2019-05-18T10:15:08.934Z,20.10
2019-05-18T10:17:39.438Z,20.10
2019-05-18T10:20:07.734Z,20.00
2019-05-18T10:22:35.754Z,20.10
2019-05-18T10:25:03.580Z,20.20
2019-05-18T10:27:32.490Z,20.10
2019-05-18T10:30:00.261Z,20.20
2019-05-18T10:32:28.979Z,20.50
2019-05-18T10:34:56.728Z,20.80
2019-05-18T10:37:24.463Z,20.90
2019-05-18T10:39:52.170Z,20.80
2019-05-18T10:42:20.102Z,20.70
2019-05-18T10:44:47.883Z,20.50
2019-05-18T10:47:15.471Z,20.50
2019-05-18T10:49:43.551Z,20.80
2019-05-18T10:52:11.392Z,21.10
2019-05-18T10:54:39.278Z,21.20
2019-05-18T10:57:07.107Z,21.10
2019-05-18T10:59:34.918Z,21.30
2019-05-18T11:02:02.787Z,21.50
2019-05-18T11:04:30.925Z,21.80
2019-05-18T11:06:58.976Z,21.80
2019-05-18T11:09:27.063Z,22.10
2019-05-18T11:11:54.835Z,22.40
2019-05-18T11:14:22.638Z,22.70
2019-05-18T11:16:50.429Z,23.40
2019-05-18T11:19:18.139Z,24.30
2019-05-18T11:21:45.855Z,25.50
2019-05-18T11:24:13.870Z,26.70
2019-05-18T11:26:41.965Z,27.50
2019-05-18T11:29:09.709Z,27.90
2019-05-18T11:31:53.052Z,27.70
2019-05-18T11:34:20.945Z,27.40
2019-05-18T11:36:48.697Z,26.80
2019-05-18T11:39:16.364Z,26.80
2019-05-18T11:41:44.224Z,27.20
2019-05-18T11:44:12.225Z,27.80
2019-05-18T11:46:40.084Z,28.00
2019-05-18T11:49:08.029Z,28.30
2019-05-18T11:51:35.867Z,28.00
2019-05-18T11:54:04.048Z,28.50
2019-05-18T11:56:31.860Z,28.90
2019-05-18T11:58:59.965Z,28.80
2019-05-18T12:01:27.799Z,27.90
2019-05-18T12:03:55.927Z,27.60
2019-05-18T12:06:23.643Z,27.30
2019-05-18T12:08:51.514Z,26.40
2019-05-18T12:11:19.680Z,26.10
2019-05-18T12:13:47.725Z,25.70
2019-05-18T12:16:17.567Z,25.70
2019-05-18T12:18:45.362Z,25.60
2019-05-18T12:21:13.022Z,25.50
2019-05-18T12:23:40.817Z,25.30
2019-05-18T12:26:08.751Z,25.20
2019-05-18T12:28:36.567Z,25.50
2019-05-18T12:31:04.452Z,25.80
2019-05-18T12:33:33.651Z,26.10
2019-05-18T12:36:01.604Z,26.20
2019-05-18T12:38:29.388Z,26.60
2019-05-18T12:40:57.260Z,27.20
2019-05-18T12:43:25.327Z,27.40
2019-05-18T12:45:53.106Z,27.20
2019-05-18T12:48:21.065Z,27.30
2019-05-18T12:50:48.725Z,27.50
2019-05-18T12:53:17.729Z,27.60
2019-05-18T12:55:45.939Z,27.60
2019-05-18T12:58:13.655Z,27.50
2019-05-18T13:00:41.307Z,27.70
2019-05-18T13:03:09.104Z,27.70
2019-05-18T13:05:36.781Z,27.30
2019-05-18T13:08:04.628Z,26.60
2019-05-18T13:10:32.595Z,26.00
2019-05-18T13:13:00.406Z,25.90
2019-05-18T13:15:28.337Z,25.80
2019-05-18T13:17:56.230Z,25.90
2019-05-18T13:20:24.957Z,25.70
2019-05-18T13:22:52.869Z,25.20
2019-05-18T13:25:20.951Z,24.90
2019-05-18T13:27:48.673Z,24.50
2019-05-18T13:30:19.874Z,24.30
2019-05-18T13:32:47.534Z,24.00
2019-05-18T13:35:15.519Z,24.00
2019-05-18T13:37:43.637Z,23.80
2019-05-18T13:40:14.401Z,23.40
2019-05-18T13:42:42.381Z,22.80
2019-05-18T13:45:10.831Z,22.50
2019-05-18T13:47:38.711Z,22.00
2019-05-18T13:50:07.304Z,21.70
2019-05-18T13:52:35.219Z,21.50
2019-05-18T13:55:05.008Z,21.20
2019-05-18T13:57:33.111Z,20.90
2019-05-18T14:00:00.859Z,20.70
2019-05-18T14:02:31.019Z,20.70
2019-05-18T14:04:58.715Z,20.50
2019-05-18T14:07:26.676Z,20.30
2019-05-18T14:09:54.645Z,20.10
2019-05-18T14:12:22.585Z,20.00
2019-05-18T14:14:50.577Z,20.10
2019-05-18T14:17:19.936Z,20.20
2019-05-18T14:19:47.604Z,20.20
2019-05-18T14:22:15.609Z,20.10
2019-05-18T14:24:43.675Z,20.20
2019-05-18T14:27:11.491Z,20.30
2019-05-18T14:29:39.370Z,20.30
2019-05-18T14:32:10.976Z,20.40
2019-05-18T14:34:38.069Z,20.50
2019-05-18T14:37:06.168Z,20.60
2019-05-18T14:39:34.123Z,20.50
2019-05-18T14:42:01.774Z,20.60
2019-05-18T14:44:29.534Z,20.80
2019-05-18T14:46:58.863Z,20.90
2019-05-18T14:49:26.747Z,21.10
2019-05-18T14:51:54.578Z,21.30
2019-05-18T14:54:25.472Z,21.40
2019-05-18T14:56:52.376Z,21.40
2019-05-18T14:59:20.077Z,21.60
2019-05-18T15:01:47.656Z,21.90
2019-05-18T15:04:15.385Z,21.80
2019-05-18T15:06:43.155Z,21.30
2019-05-18T15:09:11.169Z,21.10
2019-05-18T15:11:38.967Z,21.00
2019-05-18T15:14:06.924Z,21.30
2019-05-18T15:16:34.603Z,21.30
2019-05-18T15:19:02.398Z,21.40
2019-05-18T15:21:30.422Z,21.40
2019-05-18T15:23:58.125Z,21.40
2019-05-18T15:26:25.948Z,21.40
2019-05-18T15:28:53.665Z,21.30
2019-05-18T15:31:23.761Z,21.10
2019-05-18T15:33:52.448Z,21.00
2019-05-18T15:36:20.203Z,21.00
2019-05-18T15:38:51.301Z,21.00
2019-05-18T15:41:20.559Z,21.00
2019-05-18T15:43:49.441Z,21.00
2019-05-18T15:46:17.252Z,21.00
2019-05-18T15:48:44.945Z,20.80
2019-05-18T15:51:12.739Z,20.70
2019-05-18T15:53:40.513Z,20.70
2019-05-18T15:56:08.367Z,20.60
2019-05-18T15:58:36.085Z,20.70
2019-05-18T16:01:03.852Z,20.80
2019-05-18T16:03:31.613Z,20.80
2019-05-18T16:05:59.995Z,20.80
2019-05-18T16:08:27.886Z,20.80
2019-05-18T16:10:57.264Z,20.90
2019-05-18T16:13:25.101Z,20.90
2019-05-18T16:15:52.941Z,20.90
2019-05-18T16:18:22.083Z,20.90
2019-05-18T16:20:49.984Z,20.90
2019-05-18T16:23:17.814Z,21.00
2019-05-18T16:25:45.747Z,21.00
2019-05-18T16:28:13.523Z,21.10
2019-05-18T16:30:41.309Z,21.10
2019-05-18T16:33:09.151Z,21.10
2019-05-18T16:35:36.941Z,21.10
2019-05-18T16:38:05.093Z,21.10
2019-05-18T16:40:33.038Z,21.10
2019-05-18T16:43:01.655Z,21.00
2019-05-18T16:45:29.468Z,21.00
2019-05-18T16:47:57.411Z,20.90
2019-05-18T16:50:25.080Z,20.90
2019-05-18T16:52:52.816Z,20.80
2019-05-18T16:55:20.707Z,20.80
2019-05-18T16:57:50.163Z,20.70
2019-05-18T17:00:20.780Z,20.70
2019-05-18T17:02:48.476Z,20.70
2019-05-18T17:05:16.586Z,20.70
2019-05-18T17:07:48.005Z,20.60
2019-05-18T17:10:17.499Z,20.60
2019-05-18T17:12:45.574Z,20.60
2019-05-18T17:15:14.865Z,20.60
2019-05-18T17:17:42.574Z,20.50
2019-05-18T17:20:11.017Z,20.50
2019-05-18T17:22:38.837Z,20.40
2019-05-18T17:25:09.657Z,20.40
2019-05-18T17:27:39.487Z,20.40
2019-05-18T17:30:08.695Z,20.20
2019-05-18T17:32:36.692Z,20.10
2019-05-18T17:35:05.334Z,20.00
2019-05-18T17:37:34.616Z,20.00
2019-05-18T17:40:04.572Z,19.90
2019-05-18T17:42:32.408Z,19.90
2019-05-18T17:45:00.184Z,19.90
2019-05-18T17:47:29.630Z,19.80
2019-05-18T17:49:57.876Z,19.90
2019-05-18T17:52:25.690Z,19.90
2019-05-18T17:54:53.993Z,19.90
2019-05-18T17:57:22.012Z,19.90
2019-05-18T17:59:49.876Z,19.80
2019-05-18T18:02:17.598Z,19.70
2019-05-18T18:04:45.670Z,19.60
2019-05-18T18:07:13.540Z,19.60
2019-05-18T18:09:41.325Z,19.40
2019-05-18T18:12:15.194Z,19.40
2019-05-18T18:14:42.939Z,19.40
2019-05-18T18:17:12.156Z,19.30
2019-05-18T18:19:40.116Z,19.30
2019-05-18T18:22:08.076Z,19.10
2019-05-18T18:24:35.825Z,18.90
2019-05-18T18:27:24.569Z,18.80
2019-05-18T18:29:38.909Z,18.60
2019-05-18T18:32:16.806Z,18.50
2019-05-18T18:34:58.117Z,18.30
2019-05-18T18:37:26.172Z,18.30
2019-05-18T18:39:54.031Z,18.20
2019-05-18T18:42:22.281Z,18.10
2019-05-18T18:44:50.139Z,18.00
2019-05-18T18:47:18.176Z,17.90
2019-05-18T18:49:45.881Z,17.90
2019-05-18T18:52:13.696Z,17.80
2019-05-18T18:54:41.805Z,17.80
2019-05-18T18:57:09.644Z,17.70
2019-05-18T18:59:48.193Z,17.70
2019-05-18T19:02:20.148Z,17.60
2019-05-18T19:04:50.685Z,17.60
2019-05-18T19:07:18.546Z,17.60
2019-05-18T19:09:46.606Z,17.50
2019-05-18T19:12:15.146Z,17.50
2019-05-18T19:14:43.135Z,17.40
2019-05-18T19:17:11.078Z,17.40
2019-05-18T19:19:40.243Z,17.30
2019-05-18T19:22:08.214Z,17.30
2019-05-18T19:24:36.133Z,17.30
2019-05-18T19:27:04.171Z,17.20
2019-05-18T19:29:32.075Z,17.20
2019-05-18T19:32:01.994Z,17.20
2019-05-18T19:34:33.545Z,17.20
2019-05-18T19:37:01.628Z,17.10
2019-05-18T19:39:29.427Z,17.10
2019-05-18T19:41:57.260Z,16.90
2019-05-18T19:44:28.462Z,16.80
2019-05-18T19:46:57.765Z,16.70
2019-05-18T19:49:25.504Z,16.70
2019-05-18T19:51:53.464Z,16.60
2019-05-18T19:54:23.539Z,16.50
2019-05-18T19:56:51.425Z,16.30
2019-05-18T19:59:19.787Z,16.20
2019-05-18T20:01:47.636Z,16.10
2019-05-18T20:04:15.368Z,16.00
2019-05-18T20:06:46.016Z,15.90
2019-05-18T20:09:13.689Z,15.80
2019-05-18T20:11:41.541Z,15.80
2019-05-18T20:14:09.372Z,15.80
2019-05-18T20:16:37.149Z,15.80
2019-05-18T20:19:05.686Z,15.80
2019-05-18T20:21:33.572Z,15.80
2019-05-18T20:24:01.349Z,15.90
2019-05-18T20:26:29.081Z,15.80
2019-05-18T20:28:57.505Z,15.80
2019-05-18T20:31:25.547Z,15.80
2019-05-18T20:33:53.480Z,15.80
2019-05-18T20:36:21.222Z,15.70
2019-05-18T20:38:52.266Z,15.70
2019-05-18T20:41:20.254Z,15.70
2019-05-18T20:43:48.211Z,15.70
2019-05-18T20:46:16.188Z,15.70
2019-05-18T20:48:43.964Z,15.70
2019-05-18T20:51:14.040Z,15.60
2019-05-18T20:53:41.930Z,15.70
2019-05-18T20:56:09.745Z,15.70
2019-05-18T20:58:40.570Z,15.70
2019-05-18T21:01:07.012Z,15.80
2019-05-18T21:03:34.779Z,15.80
2019-05-18T21:06:04.722Z,15.80
2019-05-18T21:08:32.623Z,15.60
2019-05-18T21:11:00.473Z,15.40
2019-05-18T21:13:28.189Z,15.30
2019-05-18T21:15:59.369Z,15.40
2019-05-18T21:18:27.318Z,15.40
2019-05-18T21:20:56.269Z,15.40
2019-05-18T21:23:24.248Z,15.30
2019-05-18T21:25:52.198Z,15.30
2019-05-18T21:28:19.866Z,15.40
2019-05-18T21:30:47.689Z,15.40
2019-05-18T21:33:15.675Z,15.40
2019-05-18T21:35:43.514Z,15.40
2019-05-18T21:38:11.295Z,15.60
2019-05-18T21:40:39.103Z,15.60
2019-05-18T21:43:06.881Z,15.60
2019-05-18T21:45:34.673Z,15.50
2019-05-18T21:48:02.569Z,15.50
2019-05-18T21:50:30.419Z,15.40
2019-05-18T21:52:58.258Z,15.40
2019-05-18T21:55:25.944Z,15.30
2019-05-18T21:57:53.683Z,15.30
2019-05-18T22:00:22.001Z,15.30
2019-05-18T22:02:51.938Z,15.20
2019-05-18T22:05:19.839Z,15.30
2019-05-18T22:07:47.723Z,15.20
2019-05-18T22:10:25.305Z,15.20
2019-05-18T22:12:45.285Z,15.10
2019-05-18T22:15:13.642Z,15.10
2019-05-18T22:18:00.057Z,15.10
2019-05-18T22:20:27.941Z,15.00
2019-05-18T22:22:55.743Z,15.00
2019-05-18T22:25:23.460Z,15.00
2019-05-18T22:27:51.282Z,14.90
2019-05-18T22:30:19.186Z,14.90
2019-05-18T22:32:48.163Z,14.90
2019-05-18T22:35:16.007Z,14.90
2019-05-18T22:37:43.597Z,14.80
2019-05-18T22:40:11.379Z,14.80
2019-05-18T22:42:39.778Z,14.80
2019-05-18T22:45:07.507Z,14.80
2019-05-18T22:47:38.443Z,14.80
2019-05-18T22:50:05.012Z,14.70
2019-05-18T22:52:32.813Z,14.70
2019-05-18T22:55:00.717Z,14.70
2019-05-18T22:57:36.908Z,14.70
2019-05-18T23:00:05.268Z,14.70
2019-05-18T23:02:34.877Z,14.60
2019-05-18T23:05:02.873Z,14.60
2019-05-18T23:07:31.916Z,14.50
2019-05-18T23:09:59.653Z,14.50
2019-05-18T23:12:27.352Z,14.60
2019-05-18T23:14:55.044Z,14.60
2019-05-18T23:17:22.929Z,14.60
2019-05-18T23:19:50.615Z,14.50
2019-05-18T23:22:18.408Z,14.50
2019-05-18T23:24:49.256Z,14.50
2019-05-18T23:27:16.915Z,14.50
2019-05-18T23:29:44.777Z,14.50
2019-05-18T23:32:13.822Z,14.50
2019-05-18T23:34:41.656Z,14.50
2019-05-18T23:37:09.571Z,14.40
2019-05-18T23:39:37.605Z,14.40
2019-05-18T23:42:05.414Z,14.40
2019-05-18T23:44:36.218Z,14.40
2019-05-18T23:47:04.192Z,14.40
2019-05-18T23:49:31.924Z,14.30
2019-05-18T23:51:59.817Z,14.30
2019-05-18T23:54:27.480Z,14.30
2019-05-18T23:56:55.242Z,14.30
2019-05-18T23:59:22.919Z,14.30
